createdAt,value
2023-04-10T00:00:32.874Z,21.08
2023-04-10T00:03:04.337Z,22.25
2023-04-10T00:05:31.627Z,23.10
2023-04-10T00:07:58.351Z,22.33
2023-04-10T00:10:29.419Z,21.77
2023-04-10T00:12:56.521Z,20.30
2023-04-10T00:15:23.534Z,21.08
2023-04-10T00:17:55.130Z,22.50
2023-04-10T00:20:23.219Z,20.87
2023-04-10T00:22:50.343Z,20.08
2023-04-10T00:25:17.275Z,20.10
2023-04-10T00:27:44.199Z,20.08
2023-04-10T00:30:11.329Z,20.75
2023-04-10T00:32:38.395Z,19.60
2023-04-10T00:35:05.779Z,19.13
2023-04-10T00:37:32.649Z,18.88
2023-04-10T00:39:59.470Z,19.38
2023-04-10T00:42:26.273Z,18.80
2023-04-10T00:44:53.221Z,19.33
2023-04-10T00:47:20.289Z,18.42
2023-04-10T00:49:47.409Z,21.25
2023-04-10T00:52:14.448Z,19.77
2023-04-10T00:54:41.383Z,19.02
2023-04-10T00:57:08.782Z,18.03
2023-04-10T00:59:36.172Z,19.27
2023-04-10T01:02:04.099Z,19.88
2023-04-10T01:04:33.579Z,18.20
2023-04-10T01:07:12.856Z,19.67
2023-04-10T01:09:49.947Z,17.97
2023-04-10T01:12:35.767Z,16.95
2023-04-10T01:15:11.691Z,16.83
2023-04-10T01:17:54.536Z,17.95
2023-04-10T01:20:34.798Z,17.65
2023-04-10T01:23:26.335Z,17.53
2023-04-10T01:26:01.186Z,17.13
2023-04-10T01:28:47.096Z,14.85
2023-04-10T01:31:21.436Z,15.30
2023-04-10T01:33:52.195Z,16.20
2023-04-10T01:36:25.034Z,15.70
2023-04-10T01:38:54.617Z,15.90
2023-04-10T01:41:23.922Z,14.90
2023-04-10T01:43:52.496Z,15.27
2023-04-10T01:46:21.680Z,14.25
2023-04-10T01:48:50.783Z,15.13
2023-04-10T01:51:18.140Z,14.88
2023-04-10T01:53:46.118Z,14.38
2023-04-10T01:56:13.600Z,14.40
2023-04-10T01:58:46.071Z,14.52
2023-04-10T02:01:29.171Z,15.03
2023-04-10T02:03:58.350Z,13.85
2023-04-10T02:06:34.703Z,14.07
2023-04-10T02:09:28.760Z,12.90
2023-04-10T02:12:02.048Z,13.75
2023-04-10T02:14:31.971Z,13.73
2023-04-10T02:17:00.324Z,14.05
2023-04-10T02:19:27.787Z,13.80
2023-04-10T02:21:56.982Z,10.98
2023-04-10T02:24:23.916Z,12.20
2023-04-10T02:26:52.567Z,12.33
2023-04-10T02:29:19.885Z,11.38
2023-04-10T02:31:47.253Z,11.63
2023-04-10T02:34:14.415Z,12.70
2023-04-10T02:36:41.855Z,12.00
2023-04-10T02:39:11.114Z,10.93
2023-04-10T02:41:46.637Z,10.68
2023-04-10T02:44:14.408Z,10.63
2023-04-10T02:46:42.104Z,12.38
2023-04-10T02:49:10.494Z,11.40
2023-04-10T02:51:37.430Z,13.60
2023-04-10T02:54:05.070Z,11.70
2023-04-10T02:56:36.457Z,11.07
2023-04-10T02:59:03.664Z,12.63
2023-04-10T03:01:31.999Z,9.52
2023-04-10T03:03:59.733Z,10.67
2023-04-10T03:06:33.926Z,10.27
2023-04-10T03:09:00.952Z,12.55
2023-04-10T03:11:28.119Z,11.43
2023-04-10T03:13:56.017Z,10.23
2023-04-10T03:16:23.012Z,11.67
2023-04-10T03:18:49.974Z,10.68
2023-04-10T03:21:16.848Z,11.27
2023-04-10T03:23:43.640Z,11.38
2023-04-10T03:26:11.333Z,11.65
2023-04-10T03:28:39.758Z,10.47
2023-04-10T03:31:09.883Z,11.75
2023-04-10T03:33:36.930Z,11.77
2023-04-10T03:36:05.081Z,12.27
2023-04-10T03:38:33.440Z,13.27
2023-04-10T03:41:00.409Z,12.83
2023-04-10T03:43:31.360Z,12.77
2023-04-10T03:45:59.079Z,13.00
2023-04-10T03:48:28.379Z,12.25
2023-04-10T03:50:55.659Z,13.05
2023-04-10T03:53:23.444Z,13.30
2023-04-10T03:55:52.881Z,13.07
2023-04-10T03:58:21.424Z,13.30
2023-04-10T04:00:48.536Z,13.65
2023-04-10T04:03:27.123Z,13.40
2023-04-10T04:06:00.243Z,12.10
2023-04-10T04:08:33.034Z,13.80
2023-04-10T04:11:17.509Z,13.40
2023-04-10T04:14:04.601Z,12.98
2023-04-10T04:16:56.760Z,12.98
2023-04-10T04:19:29.288Z,13.30
2023-04-10T04:22:15.400Z,13.00
2023-04-10T04:24:57.254Z,12.95
2023-04-10T04:27:47.064Z,13.30
2023-04-10T04:30:32.629Z,13.73
2023-04-10T04:33:21.063Z,12.40
2023-04-10T04:35:58.011Z,14.15
2023-04-10T04:38:51.022Z,13.18
2023-04-10T04:41:32.715Z,14.38
2023-04-10T04:44:19.524Z,13.13
2023-04-10T04:46:58.139Z,11.33
2023-04-10T04:49:40.960Z,14.45
2023-04-10T04:52:27.628Z,12.23
2023-04-10T04:55:04.681Z,13.52
2023-04-10T04:57:37.090Z,13.50
2023-04-10T05:00:30.240Z,13.50
2023-04-10T05:03:11.054Z,13.65
2023-04-10T05:05:58.294Z,14.35
2023-04-10T05:08:45.439Z,13.70
2023-04-10T05:11:29.093Z,14.02
2023-04-10T05:14:14.735Z,13.43
2023-04-10T05:16:57.610Z,13.82
2023-04-10T05:19:54.007Z,13.80
2023-04-10T05:22:40.002Z,13.43
2023-04-10T05:25:36.377Z,13.85
2023-04-10T05:28:16.658Z,14.77
2023-04-10T05:31:02.040Z,14.07
2023-04-10T05:33:55.280Z,14.20
2023-04-10T05:36:42.313Z,14.90
2023-04-10T05:39:18.838Z,14.82
2023-04-10T05:41:51.539Z,15.87
2023-04-10T05:44:45.266Z,15.00
2023-04-10T05:47:30.859Z,14.65
2023-04-10T05:50:11.162Z,13.98
2023-04-10T05:53:14.239Z,14.65
2023-04-10T05:55:59.421Z,13.33
2023-04-10T05:58:42.601Z,14.18
2023-04-10T06:01:15.160Z,15.23
2023-04-10T06:03:48.402Z,14.43
2023-04-10T06:06:17.120Z,14.73
2023-04-10T06:08:44.515Z,15.13
2023-04-10T06:11:11.493Z,14.80
2023-04-10T06:13:39.222Z,15.63
2023-04-10T06:16:06.695Z,14.88
2023-04-10T06:18:34.168Z,17.98
2023-04-10T06:21:02.046Z,14.97
2023-04-10T06:23:29.063Z,15.43
2023-04-10T06:25:56.389Z,15.02
2023-04-10T06:28:23.270Z,14.63
2023-04-10T06:30:55.658Z,19.15
2023-04-10T06:33:30.637Z,14.33
2023-04-10T06:35:58.535Z,14.15
2023-04-10T06:38:25.371Z,14.27
2023-04-10T06:40:52.255Z,14.13
2023-04-10T06:43:19.102Z,13.30
2023-04-10T06:45:46.244Z,13.70
2023-04-10T06:48:13.385Z,13.02
2023-04-10T06:50:40.245Z,14.93
2023-04-10T06:53:07.080Z,14.45
2023-04-10T06:55:33.846Z,13.35
2023-04-10T06:58:00.741Z,14.13
2023-04-10T07:00:27.675Z,14.70
2023-04-10T07:02:54.746Z,13.82
2023-04-10T07:05:22.317Z,13.98
2023-04-10T07:07:50.693Z,12.57
2023-04-10T07:10:17.576Z,12.03
2023-04-10T07:12:44.394Z,13.88
2023-04-10T07:15:12.537Z,14.52
2023-04-10T07:17:39.587Z,14.77
2023-04-10T07:20:07.146Z,13.05
2023-04-10T07:22:33.975Z,13.67
2023-04-10T07:25:01.024Z,14.10
2023-04-10T07:27:28.140Z,16.42
2023-04-10T07:29:56.755Z,14.32
2023-04-10T07:32:24.183Z,11.80
2023-04-10T07:34:51.158Z,13.27
2023-04-10T07:37:18.337Z,12.40
2023-04-10T07:39:45.434Z,11.40
2023-04-10T07:42:12.365Z,11.07
2023-04-10T07:44:39.232Z,11.18
2023-04-10T07:47:06.013Z,11.83
2023-04-10T07:49:32.733Z,10.98
2023-04-10T07:51:59.712Z,10.88
2023-04-10T07:54:26.513Z,11.15
2023-04-10T07:56:53.666Z,10.02
2023-04-10T07:59:20.813Z,11.10
2023-04-10T08:01:47.718Z,10.75
2023-04-10T08:04:14.940Z,11.02
2023-04-10T08:06:41.907Z,9.35
2023-04-10T08:09:08.739Z,11.45
2023-04-10T08:11:38.391Z,10.67
2023-04-10T08:14:05.888Z,12.35
2023-04-10T08:16:34.790Z,12.10
2023-04-10T08:19:02.794Z,11.90
2023-04-10T08:21:31.737Z,14.70
2023-04-10T08:24:00.754Z,9.77
2023-04-10T08:26:28.427Z,9.52
2023-04-10T08:28:59.845Z,11.50
2023-04-10T08:31:28.246Z,10.55
2023-04-10T08:33:56.573Z,12.32
2023-04-10T08:36:23.934Z,11.80
2023-04-10T08:38:50.940Z,11.10
2023-04-10T08:41:19.431Z,11.55
2023-04-10T08:43:46.729Z,11.02
2023-04-10T08:46:16.659Z,10.35
2023-04-10T08:49:01.862Z,11.97
2023-04-10T08:51:54.777Z,11.35
2023-04-10T08:54:28.092Z,11.80
2023-04-10T08:56:56.743Z,10.32
2023-04-10T08:59:24.005Z,10.25
2023-04-10T09:01:50.850Z,11.23
2023-04-10T09:04:18.211Z,11.25
2023-04-10T09:06:45.444Z,9.38
2023-04-10T09:09:12.361Z,11.15
2023-04-10T09:12:00.702Z,10.98
2023-04-10T09:14:29.625Z,10.77
2023-04-10T09:17:11.427Z,11.45
2023-04-10T09:19:38.244Z,11.90
2023-04-10T09:22:05.384Z,10.48
2023-04-10T09:24:37.959Z,11.45
2023-04-10T09:27:06.009Z,12.43
2023-04-10T09:29:42.082Z,11.25
2023-04-10T09:32:08.888Z,14.65
2023-04-10T09:34:51.395Z,11.95
2023-04-10T09:37:20.777Z,12.27
2023-04-10T09:39:47.734Z,11.13
2023-04-10T09:42:15.250Z,12.52
2023-04-10T09:44:42.814Z,11.48
2023-04-10T09:47:21.471Z,12.05
2023-04-10T09:49:50.401Z,10.40
2023-04-10T09:52:26.279Z,10.90
2023-04-10T09:54:54.420Z,11.20
2023-04-10T09:57:22.746Z,10.88
2023-04-10T09:59:55.211Z,10.30
2023-04-10T10:02:23.892Z,12.45
2023-04-10T10:04:52.222Z,10.90
2023-04-10T10:07:21.296Z,10.93
2023-04-10T10:09:51.023Z,10.27
2023-04-10T10:12:42.172Z,11.57
2023-04-10T10:15:37.369Z,11.20
2023-04-10T10:18:13.320Z,10.13
2023-04-10T10:20:44.967Z,10.65
2023-04-10T10:23:13.058Z,10.20
2023-04-10T10:25:40.329Z,10.55
2023-04-10T10:28:07.525Z,9.43
2023-04-10T10:30:35.653Z,9.77
2023-04-10T10:33:06.741Z,8.50
2023-04-10T10:35:37.584Z,8.48
2023-04-10T10:38:05.411Z,10.45
2023-04-10T10:41:02.540Z,12.32
2023-04-10T10:43:38.424Z,9.43
2023-04-10T10:46:15.131Z,9.98
2023-04-10T10:48:59.275Z,9.13
2023-04-10T10:51:45.048Z,11.75
2023-04-10T10:54:34.446Z,9.48
2023-04-10T10:57:03.072Z,10.60
2023-04-10T10:59:48.189Z,9.02
2023-04-10T11:02:16.641Z,8.68
2023-04-10T11:04:48.888Z,8.77
2023-04-10T11:07:16.998Z,8.25
2023-04-10T11:09:51.908Z,9.10
2023-04-10T11:12:22.934Z,11.63
2023-04-10T11:15:05.049Z,8.80
2023-04-10T11:17:51.695Z,15.00
2023-04-10T11:20:22.012Z,7.95
2023-04-10T11:23:12.350Z,7.93
2023-04-10T11:25:53.666Z,9.68
2023-04-10T11:28:33.191Z,8.68
2023-04-10T11:31:24.046Z,8.43
2023-04-10T11:33:57.615Z,7.72
2023-04-10T11:36:25.019Z,10.47
2023-04-10T11:39:02.983Z,8.02
2023-04-10T11:41:32.128Z,9.82
2023-04-10T11:44:00.535Z,7.60
2023-04-10T11:46:28.146Z,8.23
2023-04-10T11:49:03.636Z,7.43
2023-04-10T11:51:31.569Z,8.43
2023-04-10T11:54:16.042Z,7.90
2023-04-10T11:56:45.307Z,7.95
2023-04-10T11:59:14.482Z,8.77
2023-04-10T12:01:43.104Z,8.70
2023-04-10T12:04:17.866Z,11.27
2023-04-10T12:06:49.360Z,8.05
2023-04-10T12:09:17.521Z,7.93
2023-04-10T12:11:59.490Z,8.48
2023-04-10T12:14:32.417Z,7.17
2023-04-10T12:17:00.949Z,8.38
2023-04-10T12:19:28.396Z,7.10
2023-04-10T12:21:56.197Z,9.55
2023-04-10T12:24:48.006Z,6.13
2023-04-10T12:27:28.642Z,7.70
2023-04-10T12:29:57.385Z,8.43
2023-04-10T12:32:25.646Z,7.90
2023-04-10T12:34:59.351Z,5.65
2023-04-10T12:37:55.483Z,6.00
2023-04-10T12:40:22.233Z,7.33
2023-04-10T12:42:49.079Z,6.10
2023-04-10T12:45:16.053Z,6.40
2023-04-10T12:47:49.065Z,7.15
2023-04-10T12:50:17.679Z,5.75
2023-04-10T12:53:03.788Z,6.90
2023-04-10T12:55:31.222Z,6.38
2023-04-10T12:57:58.260Z,7.38
2023-04-10T13:00:26.306Z,7.32
2023-04-10T13:02:53.296Z,6.55
2023-04-10T13:05:21.647Z,6.60
2023-04-10T13:07:52.861Z,6.40
2023-04-10T13:10:20.226Z,7.18
2023-04-10T13:12:47.422Z,7.18
2023-04-10T13:15:14.300Z,7.50
2023-04-10T13:17:41.892Z,7.03
2023-04-10T13:20:11.001Z,9.05
2023-04-10T13:22:37.863Z,8.13
2023-04-10T13:25:05.661Z,6.18
2023-04-10T13:27:32.615Z,7.22
2023-04-10T13:29:59.457Z,6.77
2023-04-10T13:32:26.403Z,9.23
2023-04-10T13:34:54.769Z,6.07
2023-04-10T13:37:21.681Z,7.30
2023-04-10T13:39:48.452Z,7.55
2023-04-10T13:42:15.456Z,6.37
2023-04-10T13:44:42.348Z,7.85
2023-04-10T13:47:09.453Z,8.93
2023-04-10T13:49:36.400Z,7.72
2023-04-10T13:52:03.296Z,7.60
2023-04-10T13:54:30.153Z,8.73
2023-04-10T13:56:57.658Z,7.03
2023-04-10T13:59:24.510Z,8.88
2023-04-10T14:01:52.594Z,8.35
2023-04-10T14:04:19.734Z,7.35
2023-04-10T14:06:46.668Z,7.43
2023-04-10T14:09:13.509Z,8.45
2023-04-10T14:11:40.385Z,7.53
2023-04-10T14:14:07.316Z,8.82
2023-04-10T14:16:34.236Z,9.07
2023-04-10T14:19:01.036Z,9.13
2023-04-10T14:21:27.867Z,8.25
2023-04-10T14:23:54.639Z,7.80
2023-04-10T14:26:21.806Z,8.52
2023-04-10T14:28:48.747Z,8.20
2023-04-10T14:31:15.956Z,9.73
2023-04-10T14:33:42.959Z,9.88
2023-04-10T14:36:10.001Z,8.50
2023-04-10T14:38:36.985Z,9.57
2023-04-10T14:41:03.958Z,8.68
2023-04-10T14:43:30.714Z,9.23
2023-04-10T14:45:57.574Z,9.05
2023-04-10T14:48:25.089Z,9.77
2023-04-10T14:50:51.969Z,8.63
2023-04-10T14:53:18.754Z,7.63
2023-04-10T14:55:45.934Z,9.20
2023-04-10T14:58:12.711Z,8.98
2023-04-10T15:00:39.602Z,9.07
2023-04-10T15:03:06.696Z,8.77
2023-04-10T15:05:33.605Z,8.32
2023-04-10T15:08:00.662Z,9.67
2023-04-10T15:10:30.728Z,7.38
2023-04-10T15:12:57.652Z,9.07
2023-04-10T15:15:24.598Z,10.45
2023-04-10T15:17:51.495Z,9.82
2023-04-10T15:20:18.417Z,13.73
2023-04-10T15:22:45.517Z,11.13
2023-04-10T15:25:12.420Z,9.90
2023-04-10T15:27:39.468Z,9.80
2023-04-10T15:30:07.080Z,8.20
2023-04-10T15:32:35.004Z,9.57
2023-04-10T15:35:01.773Z,11.00
2023-04-10T15:37:28.697Z,9.02
2023-04-10T15:39:55.653Z,11.15
2023-04-10T15:42:22.448Z,10.00
2023-04-10T15:44:49.415Z,12.63
2023-04-10T15:47:16.213Z,14.18
2023-04-10T15:49:43.016Z,10.07
2023-04-10T15:52:09.870Z,8.65
2023-04-10T15:54:39.221Z,12.60
2023-04-10T15:57:06.051Z,10.23
2023-04-10T15:59:33.766Z,7.30
2023-04-10T16:02:00.910Z,10.38
2023-04-10T16:04:28.265Z,10.07
2023-04-10T16:06:56.578Z,13.60
2023-04-10T16:09:26.500Z,11.33
2023-04-10T16:11:54.869Z,13.75
2023-04-10T16:14:22.599Z,15.38
2023-04-10T16:16:49.637Z,14.73
2023-04-10T16:19:16.413Z,17.42
2023-04-10T16:21:43.319Z,14.63
2023-04-10T16:24:10.229Z,14.30
2023-04-10T16:26:37.105Z,11.48
2023-04-10T16:29:03.940Z,17.35
2023-04-10T16:31:31.104Z,14.68
2023-04-10T16:33:58.007Z,15.20
2023-04-10T16:36:24.883Z,15.98
2023-04-10T16:38:51.989Z,19.20
2023-04-10T16:41:20.668Z,14.75
2023-04-10T16:43:47.777Z,16.88
2023-04-10T16:46:14.829Z,16.13
2023-04-10T16:48:41.914Z,14.25
2023-04-10T16:51:15.807Z,13.95
2023-04-10T16:53:42.834Z,14.27
2023-04-10T16:56:09.817Z,13.35
2023-04-10T16:58:37.816Z,11.60
2023-04-10T17:01:16.644Z,13.65
2023-04-10T17:03:44.121Z,11.05
2023-04-10T17:06:11.163Z,11.75
2023-04-10T17:08:38.071Z,13.80
2023-04-10T17:11:05.415Z,9.50
2023-04-10T17:13:32.986Z,14.70
2023-04-10T17:15:59.845Z,12.75
2023-04-10T17:18:27.166Z,14.95
2023-04-10T17:20:53.993Z,11.93
2023-04-10T17:23:21.010Z,13.90
2023-04-10T17:25:47.859Z,15.75
2023-04-10T17:28:14.640Z,12.93
2023-04-10T17:30:43.337Z,11.20
2023-04-10T17:33:10.283Z,11.65
2023-04-10T17:35:37.218Z,10.33
2023-04-10T17:38:04.003Z,9.95
2023-04-10T17:40:31.990Z,13.98
2023-04-10T17:42:58.883Z,10.98
2023-04-10T17:45:25.652Z,10.07
2023-04-10T17:47:52.513Z,8.83
2023-04-10T17:50:19.500Z,9.40
2023-04-10T17:52:46.426Z,11.93
2023-04-10T17:55:18.401Z,9.52
2023-04-10T17:57:47.879Z,9.45
2023-04-10T18:00:16.159Z,6.67
2023-04-10T18:02:44.301Z,9.10
2023-04-10T18:05:12.091Z,9.82
2023-04-10T18:07:38.970Z,9.07
2023-04-10T18:10:09.825Z,10.88
2023-04-10T18:12:37.977Z,9.10
2023-04-10T18:15:05.531Z,9.50
2023-04-10T18:17:32.419Z,12.77
2023-04-10T18:19:59.224Z,8.10
2023-04-10T18:22:26.053Z,19.25
2023-04-10T18:24:53.414Z,9.63
2023-04-10T18:27:20.354Z,11.18
2023-04-10T18:29:47.205Z,7.97
2023-04-10T18:32:13.980Z,8.88
2023-04-10T18:34:40.819Z,10.52
2023-04-10T18:37:09.883Z,10.17
2023-04-10T18:39:38.245Z,8.05
2023-04-10T18:42:08.168Z,9.40
2023-04-10T18:44:35.159Z,8.88
2023-04-10T18:47:04.672Z,10.32
2023-04-10T18:49:32.205Z,8.47
2023-04-10T18:51:59.295Z,7.93
2023-04-10T18:54:29.084Z,9.30
2023-04-10T18:56:56.710Z,9.05
2023-04-10T18:59:23.669Z,10.23
2023-04-10T19:01:50.578Z,8.00
2023-04-10T19:04:17.681Z,10.77
2023-04-10T19:06:46.172Z,10.20
2023-04-10T19:09:13.632Z,9.75
2023-04-10T19:11:40.799Z,11.70
2023-04-10T19:14:07.663Z,8.63
2023-04-10T19:16:35.013Z,8.57
2023-04-10T19:19:02.512Z,12.63
2023-04-10T19:21:29.472Z,10.93
2023-04-10T19:23:56.338Z,12.25
2023-04-10T19:26:23.316Z,17.77
2023-04-10T19:28:50.361Z,13.15
2023-04-10T19:31:17.440Z,12.00
2023-04-10T19:33:44.345Z,9.18
2023-04-10T19:36:11.389Z,9.23
2023-04-10T19:38:40.788Z,11.50
2023-04-10T19:41:15.266Z,11.68
2023-04-10T19:43:42.533Z,13.32
2023-04-10T19:46:19.767Z,16.02
2023-04-10T19:48:47.802Z,14.57
2023-04-10T19:51:15.002Z,16.43
2023-04-10T19:53:42.241Z,13.40
2023-04-10T19:56:09.448Z,10.40
2023-04-10T19:58:40.903Z,12.60
2023-04-10T20:01:09.277Z,11.15
2023-04-10T20:03:37.789Z,9.27
2023-04-10T20:06:07.242Z,10.95
2023-04-10T20:08:35.029Z,9.80
2023-04-10T20:11:05.718Z,14.90
2023-04-10T20:13:34.398Z,13.02
2023-04-10T20:16:01.333Z,10.40
2023-04-10T20:18:28.214Z,13.18
2023-04-10T20:20:55.106Z,16.92
2023-04-10T20:23:21.915Z,11.68
2023-04-10T20:25:48.795Z,12.85
2023-04-10T20:28:16.877Z,12.63
2023-04-10T20:30:44.091Z,10.98
2023-04-10T20:33:11.833Z,11.52
2023-04-10T20:35:38.803Z,8.82
2023-04-10T20:38:05.835Z,14.02
2023-04-10T20:40:32.763Z,9.67
2023-04-10T20:42:59.615Z,10.57
2023-04-10T20:45:26.468Z,15.68
2023-04-10T20:47:53.569Z,16.67
2023-04-10T20:50:20.362Z,15.10
2023-04-10T20:52:47.325Z,12.33
2023-04-10T20:55:14.205Z,13.40
2023-04-10T20:57:40.990Z,13.27
2023-04-10T21:00:08.530Z,13.10
2023-04-10T21:02:35.665Z,13.45
2023-04-10T21:05:03.092Z,14.63
2023-04-10T21:07:29.963Z,12.80
2023-04-10T21:09:56.919Z,13.93
2023-04-10T21:12:24.010Z,13.82
2023-04-10T21:14:50.910Z,15.43
2023-04-10T21:17:18.876Z,11.47
2023-04-10T21:19:45.774Z,12.00
2023-04-10T21:22:12.597Z,14.75
2023-04-10T21:24:39.700Z,14.82
2023-04-10T21:27:07.528Z,16.58
2023-04-10T21:29:34.416Z,14.13
2023-04-10T21:32:01.302Z,16.13
2023-04-10T21:34:28.305Z,11.35
2023-04-10T21:36:55.258Z,10.65
2023-04-10T21:39:22.024Z,16.00
2023-04-10T21:41:48.861Z,14.07
2023-04-10T21:44:15.968Z,14.65
2023-04-10T21:46:42.757Z,20.30
2023-04-10T21:49:10.340Z,16.98
2023-04-10T21:51:37.305Z,19.63
2023-04-10T21:54:04.134Z,12.97
2023-04-10T21:56:30.880Z,14.43
2023-04-10T21:58:57.695Z,15.77
2023-04-10T22:01:24.610Z,13.23
2023-04-10T22:03:51.640Z,18.42
2023-04-10T22:06:18.472Z,14.03
2023-04-10T22:08:45.416Z,10.23
2023-04-10T22:11:12.273Z,8.73
2023-04-10T22:13:39.047Z,7.55
2023-04-10T22:16:06.767Z,6.47
2023-04-10T22:18:33.564Z,7.13
2023-04-10T22:21:00.699Z,6.80
2023-04-10T22:23:27.552Z,8.15
2023-04-10T22:25:54.349Z,8.07
2023-04-10T22:28:21.193Z,5.68
2023-04-10T22:30:48.012Z,4.53
2023-04-10T22:33:15.423Z,4.97
2023-04-10T22:35:42.635Z,7.68
2023-04-10T22:38:09.635Z,7.28
2023-04-10T22:40:36.517Z,7.20
2023-04-10T22:43:03.331Z,7.77
2023-04-10T22:45:30.203Z,5.22
2023-04-10T22:47:57.448Z,5.65
2023-04-10T22:50:24.269Z,5.50
2023-04-10T22:52:51.207Z,7.88
2023-04-10T22:55:18.112Z,6.73
2023-04-10T22:57:49.357Z,7.35
2023-04-10T23:00:16.568Z,5.18
2023-04-10T23:02:43.451Z,7.18
2023-04-10T23:05:10.446Z,4.32
2023-04-10T23:07:37.239Z,8.87
2023-04-10T23:10:04.472Z,8.27
2023-04-10T23:12:31.607Z,9.68
2023-04-10T23:14:58.614Z,9.32
2023-04-10T23:17:25.484Z,14.35
2023-04-10T23:19:52.271Z,18.10
2023-04-10T23:22:19.200Z,15.00
2023-04-10T23:24:46.146Z,17.73
2023-04-10T23:27:12.965Z,29.48
2023-04-10T23:29:39.813Z,24.27
2023-04-10T23:32:07.862Z,26.40
2023-04-10T23:34:34.681Z,25.88
2023-04-10T23:37:01.626Z,28.85
2023-04-10T23:39:28.522Z,26.13
2023-04-10T23:41:56.880Z,32.10
2023-04-10T23:44:24.183Z,28.40
2023-04-10T23:46:51.306Z,29.48
2023-04-10T23:49:18.751Z,35.95
2023-04-10T23:51:46.097Z,32.25
2023-04-10T23:54:13.378Z,17.00
2023-04-10T23:56:40.607Z,26.37
2023-04-10T23:59:07.472Z,30.40
